Latest Weather Observations for Maria Island

IDT60801

Issued at 9:05 pm EDT Tuesday 21 October 2014 (issued every 30 minutes, with the page automatically refreshed every 10 minutes)

About weather observations | Map of weather stations | Latest weather observations for TAS | Other Formats
Station Details ID: 092124 Name: MARIA ISLAND (POINT LESUEUR) Lat: -42.66 Lon: 148.02 Height: 28.0 m
Data from the previous 72 hours. | See also: Recent months at Maria Island
Date/Time
EDT
Temp
°C
App
Temp
°C
Dew
Point
Rel
Hum
%
Delta-T
°C
Wind Press
QNH
hPa
Press
MSL
hPa
Rain
since 9 am
mm
Dir
 
Spd
km/h
Gust
km/h
Spd
kts
Gust
kts
21/09:00pm 13.2 6.3 8.7 74 2.2 NNE 35 46 19 25 1027.0 1027.0 0.0
21/08:30pm 13.2 7.2 8.5 73 2.3 N 30 35 16 19 1027.4 1027.4 0.0
21/08:00pm 13.2 6.7 8.3 72 2.4 N 32 39 17 21 1027.5 1027.5 0.0
21/07:30pm 13.4 8.1 8.5 72 2.5 N 26 33 14 18 1027.8 1027.8 0.0
21/07:00pm 13.7 7.5 7.7 67 2.9 N 30 37 16 20 1027.8 1027.8 0.0
21/06:30pm 14.0 8.6 7.8 66 3.1 NNE 26 32 14 17 1028.0 1028.0 0.0
21/06:00pm 14.3 8.9 8.0 66 3.1 NNE 26 35 14 19 1028.0 1028.0 0.0
21/05:30pm 14.5 8.0 8.0 65 3.2 N 32 41 17 22 1028.0 1028.0 0.0
21/05:00pm 14.8 7.6 7.6 62 3.5 N 35 43 19 23 1028.1 1028.1 0.0
21/04:30pm 15.2 8.5 7.3 59 3.9 N 32 39 17 21 1028.5 1028.5 0.0
21/04:00pm 15.3 8.5 7.8 61 3.7 N 33 41 18 22 1028.9 1028.9 0.0
21/03:30pm 15.3 7.9 6.8 57 4.2 N 35 43 19 23 1029.2 1029.2 0.0
21/03:00pm 15.6 8.3 7.1 57 4.2 NNE 35 44 19 24 1029.6 1029.6 0.0
21/02:30pm 15.7 8.3 6.7 55 4.4 N 35 43 19 23 1030.0 1030.0 0.0
21/02:00pm 15.4 7.9 6.2 54 4.4 N 35 41 19 22 1030.5 1030.5 0.0
21/01:30pm 15.6 8.5 5.5 51 4.8 N 32 39 17 21 1031.0 1031.1 0.0
21/01:00pm 15.8 9.6 6.3 53 4.6 N 28 35 15 19 1031.5 1031.6 0.0
21/12:30pm 15.4 8.4 5.9 53 4.6 N 32 37 17 20 1031.6 1031.7 0.0
21/12:00pm 14.6 6.9 5.4 54 4.3 N 35 43 19 23 1031.9 1032.0 0.0
21/11:30am 14.0 6.4 5.9 58 3.9 N 35 43 19 23 1032.5 1032.6 0.0
21/11:00am 14.0 7.1 6.4 60 3.6 N 32 37 17 20 1032.9 1033.0 0.0
21/10:30am 13.6 8.2 6.5 62 3.4 N 24 28 13 15 1033.4 1033.5 0.0
21/10:00am 13.3 8.2 6.2 62 3.3 N 22 24 12 13 1033.6 1033.7 0.0
21/09:30am 12.3 8.5 5.9 65 3.0 N 15 19 8 10 1033.8 1033.9 0.0
21/09:00am 11.6 8.2 5.9 68 2.6 N 13 17 7 9 1033.9 1034.0 0.0
21/08:30am 10.6 7.1 5.4 70 2.4 N 13 15 7 8 1033.9 1034.0 0.0
21/08:00am 10.2 6.0 5.8 74 2.0 N 17 19 9 10 1033.9 1034.0 0.0
21/07:30am 9.9 6.3 5.1 72 2.2 N 13 15 7 8 1033.9 1034.0 0.0
21/07:00am 9.2 5.1 4.6 73 2.0 NNW 15 17 8 9 1033.8 1033.9 0.0
21/06:30am 8.7 5.0 4.7 76 1.8 N 13 17 7 9 1033.6 1033.7 0.0
21/06:00am 8.5 5.3 5.3 80 1.4 NNW 11 13 6 7 1033.5 1033.6 0.0
21/05:30am 8.9 4.0 3.9 71 2.2 NNW 19 22 10 12 1033.1 1033.2 0.0
21/05:00am 8.8 4.8 4.8 76 1.8 NNW 15 17 8 9 1032.8 1032.9 0.0
21/04:30am 8.3 5.0 4.7 78 1.6 NW 11 13 6 7 1033.0 1033.1 0.0
21/04:00am 8.9 5.7 4.9 76 1.8 NNW 11 13 6 7 1032.9 1033.0 0.0
21/03:30am 8.4 5.2 5.0 79 1.5 NW 11 13 6 7 1033.0 1033.1 0.0
21/03:00am 8.9 5.8 5.5 79 1.5 NW 11 15 6 8 1033.3 1033.4 0.0
21/02:30am 8.5 5.8 3.8 72 2.0 NNE 7 11 4 6 1033.4 1033.5 0.0
21/02:00am 8.9 5.1 3.7 70 2.2 NE 13 15 7 8 1033.3 1033.4 0.0
21/01:30am 8.8 5.4 4.0 72 2.1 NE 11 11 6 6 1033.8 1033.9 0.0
21/01:00am 9.3 5.9 3.9 69 2.3 ENE 11 13 6 7 1034.1 1034.2 0.0
21/12:30am 9.4 6.7 3.8 68 2.4 ENE 7 7 4 4 1034.4 1034.5 0.0
21/12:00am 9.8 6.9 4.4 69 2.4 ENE 9 11 5 6 1034.7 1034.8 0.0
 
Date/Time
EDT
Temp
°C
App
Temp
°C
Dew
Point
Rel
Hum
%
Delta-T
°C
Wind Press
QNH
hPa
Press
MSL
hPa
Rain
since 9 am
mm
Dir
 
Spd
km/h
Gust
km/h
Spd
kts
Gust
kts
20/11:30pm 9.7 7.2 3.9 67 2.5 NE 6 7 3 4 1035.1 1035.2 0.0
20/11:00pm 9.6 7.5 3.8 67 2.5 ENE 4 6 2 3 1035.4 1035.5 0.0
20/10:30pm 9.3 6.8 3.5 67 2.5 ENE 6 7 3 4 1035.5 1035.6 0.0
20/10:00pm 9.1 6.6 3.7 69 2.3 ENE 6 7 3 4 1035.5 1035.6 0.0
20/09:30pm 9.3 6.6 3.9 69 2.4 ESE 7 9 4 5 1035.3 1035.4 0.0
20/09:00pm 9.6 6.1 3.6 66 2.6 ESE 11 13 6 7 1035.2 1035.3 0.0
20/08:30pm 9.9 6.4 3.6 65 2.8 SE 11 13 6 7 1035.0 1035.1 0.0
20/08:00pm 9.8 6.3 3.3 64 2.8 SE 11 13 6 7 1034.6 1034.7 0.0
20/07:30pm 9.8 6.0 3.8 66 2.6 SE 13 17 7 9 1034.2 1034.3 0.0
20/07:00pm 10.4 6.6 3.9 64 2.8 ESE 13 17 7 9 1034.1 1034.2 0.0
20/06:30pm 10.7 6.5 3.7 62 3.1 ESE 15 19 8 10 1033.8 1033.9 0.0
20/06:00pm 11.2 7.0 3.7 60 3.3 ESE 15 20 8 11 1033.6 1033.7 0.0
20/05:30pm 11.5 6.4 3.0 56 3.7 E 19 22 10 12 1033.5 1033.6 0.0
20/05:00pm 11.9 6.4 3.9 58 3.5 E 22 28 12 15 1033.3 1033.4 0.0
20/04:30pm 12.1 6.6 3.9 57 3.7 E 22 33 12 18 1033.2 1033.3 0.0
20/04:00pm 12.1 6.6 3.9 57 3.6 E 22 30 12 16 1033.0 1033.1 0.0
20/03:30pm 12.5 8.4 2.4 50 4.4 SSE 13 19 7 10 1033.4 1033.5 0.0
20/03:00pm 12.6 8.5 2.5 50 4.4 SSE 13 19 7 10 1033.4 1033.5 0.0
20/02:30pm 13.3 8.2 3.1 50 4.5 S 19 24 10 13 1033.5 1033.6 0.0
20/02:00pm 12.9 7.4 1.9 47 4.7 S 20 26 11 14 1033.6 1033.7 0.0
20/01:30pm 12.9 7.0 1.9 47 4.8 S 22 26 12 14 1033.6 1033.7 0.0
20/01:00pm 12.4 6.2 2.3 50 4.3 S 24 28 13 15 1033.6 1033.7 0.0
20/12:30pm 12.6 7.2 2.5 50 4.4 SSW 20 24 11 13 1033.8 1033.9 0.0
20/12:00pm 11.9 6.6 2.1 51 4.2 SSW 19 26 10 14 1033.9 1034.0 0.0
20/11:30am 11.5 5.3 2.3 53 4.0 SSW 24 32 13 17 1033.8 1033.9 0.0
20/11:00am 10.6 4.5 2.9 59 3.3 SSW 24 35 13 19 1033.9 1034.0 0.0
20/10:30am 10.4 4.6 2.5 58 3.4 SSW 22 30 12 16 1033.8 1033.9 0.0
20/10:00am 11.0 4.1 2.8 57 3.5 SW 28 33 15 18 1033.6 1033.7 0.0
20/09:30am 10.4 4.4 3.2 61 3.1 SSW 24 30 13 16 1033.2 1033.3 0.0
20/09:00am 9.6 4.2 2.5 61 3.0 SSW 20 28 11 15 1032.9 1033.0 2.2
20/08:30am 8.8 4.8 3.0 67 2.5 SW 13 19 7 10 1032.7 1032.8 2.2
20/08:00am 8.5 0.9 3.9 73 2.0 SSW 33 43 18 23 1032.3 1032.4 2.2
20/07:30am 8.8 0.8 1.7 61 2.9 SSW 33 39 18 21 1031.8 1031.9 2.2
20/07:00am 7.9 2.6 2.0 66 2.4 W 19 24 10 13 1031.5 1031.6 2.2
20/06:30am 8.4 1.3 1.3 61 2.9 SW 28 33 15 18 1031.0 1031.1 2.2
20/06:00am 8.3 1.0 2.3 66 2.5 SSW 30 33 16 18 1030.4 1030.4 2.2
20/05:30am 7.8 2.3 1.9 66 2.4 WSW 20 26 11 14 1030.1 1030.1 2.2
20/05:00am 7.9 1.6 1.7 65 2.5 WSW 24 33 13 18 1029.7 1029.7 2.2
20/04:30am 7.3 2.1 2.4 71 2.0 SW 19 28 10 15 1029.5 1029.5 2.2
20/04:00am 7.5 2.1 2.6 71 2.0 WSW 20 26 11 14 1028.9 1028.9 2.2
20/03:30am 8.1 0.5 2.6 68 2.3 SW 32 44 17 24 1028.5 1028.5 2.2
20/03:00am 7.3 -0.3 2.8 73 1.9 SW 32 46 17 25 1028.0 1028.0 2.2
20/02:30am 6.7 -0.3 3.9 82 1.2 SW 30 35 16 19 1027.7 1027.7 2.2
20/02:13am 5.6 -1.8 3.8 88 0.8 SSW 32 35 17 19 1027.8 1027.8 2.0
20/02:06am 6.2 -5.8 3.7 84 1.1 S 56 59 30 32 1027.7 1027.7 1.8
20/02:04am 7.7 -0.4 3.2 73 1.9 SW 35 61 19 33 1027.7 1027.7 1.6
20/02:00am 8.0 0.7 2.3 67 2.4 SW 30 41 16 22 1027.4 1027.4 1.6
20/01:30am 8.1 0.1 1.9 65 2.6 SW 33 39 18 21 1027.0 1027.0 1.6
20/01:00am 8.1 -0.5 2.6 68 2.3 SW 37 50 20 27 1026.9 1026.9 1.6
20/12:30am 8.1 -1.5 3.2 71 2.1 SW 43 50 23 27 1026.3 1026.3 1.6
20/12:00am 7.7 -2.5 3.2 73 1.9 SW 46 59 25 32 1025.8 1025.8 1.6
 
Date/Time
EDT
Temp
°C
App
Temp
°C
Dew
Point
Rel
Hum
%
Delta-T
°C
Wind Press
QNH
hPa
Press
MSL
hPa
Rain
since 9 am
mm
Dir
 
Spd
km/h
Gust
km/h
Spd
kts
Gust
kts
19/11:42pm 7.6 -5.8 3.3 74 1.8 SW 63 82 34 44 1025.4 1025.4 1.6
19/11:30pm 8.3 -5.3 4.1 75 1.8 SSW 65 82 35 44 1025.2 1025.2 1.6
19/11:29pm 8.5 -4.7 4.5 76 1.8 SSW 63 82 34 44 1025.2 1025.2 1.6
19/11:00pm 9.1 0.9 4.7 74 1.9 SSW 37 48 20 26 1024.9 1024.9 1.6
19/10:30pm 8.7 -1.6 4.5 75 1.9 SSW 48 56 26 30 1024.0 1024.0 1.6
19/10:16pm 8.9 -1.5 4.1 72 2.1 SW 48 67 26 36 1023.8 1023.8 1.6
19/10:00pm 9.3 -0.2 3.9 69 2.3 SW 43 57 23 31 1023.5 1023.5 1.6
19/09:30pm 9.3 -1.1 4.3 71 2.2 SW 48 59 26 32 1022.8 1022.8 1.6
19/09:00pm 9.3 -1.2 5.7 78 1.6 SW 50 57 27 31 1022.1 1022.1 1.6
19/08:30pm 8.9 -1.3 5.1 77 1.7 SSW 48 67 26 36 1021.4 1021.4 1.6
19/08:19pm 8.7 -1.0 5.8 82 1.3 SSW 46 67 25 36 1021.1 1021.1 1.6
19/08:00pm 8.8 -0.8 6.1 83 1.2 SSW 46 56 25 30 1021.0 1021.0 1.6
19/07:30pm 8.7 -2.6 7.2 90 0.7 SSW 56 65 30 35 1020.0 1020.0 1.2
19/07:21pm 8.9 -2.5 7.4 90 0.7 SSW 57 65 31 35 1019.5 1019.5 1.0
19/07:02pm 10.3 2.8 7.9 85 1.2 SSW 37 57 20 31 1019.0 1019.0 0.4
19/07:00pm 10.6 3.8 7.7 82 1.4 SW 33 39 18 21 1019.1 1019.1 0.4
19/06:30pm 10.5 5.0 7.7 83 1.3 SSW 26 32 14 17 1018.0 1018.0 0.4
19/06:00pm 10.3 5.8 8.6 89 0.8 SSW 22 26 12 14 1017.6 1017.6 0.4
19/05:30pm 10.4 3.9 8.8 90 0.8 SSW 33 43 18 23 1017.7 1017.7 0.4
19/05:00pm 10.4 1.4 9.0 91 0.7 SSW 46 52 25 28 1017.0 1017.0 0.0
19/04:30pm 10.8 0.6 8.7 87 1.0 SSW 52 59 28 32 1016.0 1016.0 0.0
19/04:00pm 11.4 2.3 8.3 81 1.5 SSW 46 54 25 29 1015.5 1015.5 0.0
19/03:30pm 11.7 2.8 9.3 85 1.2 SSW 46 52 25 28 1015.4 1015.4 0.0
19/03:00pm 14.0 6.5 9.6 75 2.3 SSW 39 46 21 25 1015.5 1015.5 0.0
19/02:30pm 15.3 9.1 9.2 67 3.1 SSW 32 37 17 20 1014.7 1014.7 0.0
19/02:00pm 15.4 8.2 9.3 67 3.1 S 37 46 20 25 1014.7 1014.7 0.0
19/01:50pm 15.3 9.4 9.2 67 3.1 S 30 43 16 23 1014.9 1014.9 0.0
19/01:30pm 16.4 14.3 9.8 65 3.5 ESE 11 22 6 12 1014.5 1014.5 0.0
19/01:00pm 16.0 13.4 10.7 71 2.8 ESE 15 24 8 13 1014.5 1014.5 0.0
19/12:30pm 17.6 14.0 9.8 60 4.1 S 19 24 10 13 1014.4 1014.4 0.0
19/12:00pm 19.5 18.1 8.8 50 5.6 NNE 6 13 3 7 1014.4 1014.4 0.0
19/11:30am 18.7 16.5 9.2 54 5.0 N 11 15 6 8 1014.3 1014.3 0.0
19/11:00am 17.8 15.2 10.7 63 3.8 N 15 15 8 8 1014.6 1014.6 0.0
19/10:30am 16.4 13.5 11.1 71 2.8 N 17 19 9 10 1014.6 1014.6 0.0
19/10:00am 17.5 14.2 10.9 65 3.6 N 19 22 10 12 1014.8 1014.8 0.0
19/09:30am 16.7 13.2 11.0 69 3.1 N 20 24 11 13 1014.7 1014.7 0.0
19/09:00am 15.3 11.3 10.5 73 2.5 N 22 24 12 13 1014.8 1014.8 0.0
19/08:30am 14.7 10.3 10.5 76 2.2 N 24 26 13 14 1014.3 1014.3 0.0
19/08:00am 14.4 10.2 9.8 74 2.4 NNW 22 28 12 15 1014.2 1014.2 0.0
19/07:30am 14.3 8.2 9.7 74 2.4 NNW 32 33 17 18 1014.0 1014.0 0.0
19/07:00am 14.3 8.5 9.3 72 2.6 NNW 30 33 16 18 1013.3 1013.3 0.0
19/06:30am 14.4 7.6 9.2 71 2.7 NNW 35 41 19 22 1012.9 1012.9 0.0
19/06:00am 14.6 6.0 8.8 68 2.9 N 44 50 24 27 1012.3 1012.3 0.0
19/05:30am 14.5 6.4 8.7 68 2.9 N 41 48 22 26 1012.5 1012.5 0.0
19/05:00am 14.4 6.3 8.8 69 2.8 N 41 46 22 25 1013.1 1013.1 0.0
19/04:30am 14.0 5.9 8.6 70 2.7 N 41 48 22 26 1013.5 1013.5 0.0
19/04:00am 14.1 5.9 8.1 67 3.0 N 41 44 22 24 1014.3 1014.3 0.0
19/03:30am 14.2 7.4 7.9 66 3.1 N 33 39 18 21 1014.9 1014.9 0.0
19/03:00am 14.4 7.3 8.1 66 3.1 NNW 35 41 19 22 1015.1 1015.1 0.0
19/02:30am 15.2 9.3 7.7 61 3.7 NW 28 46 15 25 1014.9 1014.9 0.0
19/02:27am 15.4 9.5 7.7 60 3.8 NW 28 46 15 25 1015.0 1015.0 0.0
19/02:00am 15.8 8.8 6.8 55 4.4 NW 33 44 18 24 1014.9 1014.9 0.0
19/01:30am 15.3 10.0 6.8 57 4.2 NW 24 28 13 15 1015.4 1015.4 0.0
19/01:00am 14.5 10.5 6.6 59 3.8 NW 17 20 9 11 1015.7 1015.7 0.0
19/12:30am 14.8 9.5 6.6 58 4.0 NNW 24 37 13 20 1015.8 1015.8 0.0
19/12:27am 14.9 9.6 7.0 59 3.9 NNW 24 37 13 20 1015.8 1015.8 0.0
19/12:00am 15.5 7.2 6.2 54 4.5 N 39 52 21 28 1015.4 1015.4 0.0
 
Date/Time
EDT
Temp
°C
App
Temp
°C
Dew
Point
Rel
Hum
%
Delta-T
°C
Wind Press
QNH
hPa
Press
MSL
hPa
Rain
since 9 am
mm
Dir
 
Spd
km/h
Gust
km/h
Spd
kts
Gust
kts
18/11:30pm 14.5 7.1 8.2 66 3.2 N 37 43 20 23 1015.9 1015.9 0.0
18/11:00pm 15.2 6.6 6.7 57 4.1 N 41 46 22 25 1016.0 1016.0 0.0
18/10:30pm 14.8 7.9 7.4 61 3.7 N 33 41 18 22 1017.1 1017.1 0.0
18/10:00pm 14.7 6.7 7.3 61 3.6 N 39 46 21 25 1017.4 1017.4 0.0
18/09:30pm 14.8 8.0 7.6 62 3.6 N 33 44 18 24 1018.2 1018.2 0.0

Other Formats:

Comma delimited format used in spreadsheet applications
http://www.bom.gov.au/fwo/IDT60801/IDT60801.95988.axf

JavaScript Object Notation format (JSON) in row-major order
http://www.bom.gov.au/fwo/IDT60801/IDT60801.95988.json